Time;durP1;ratioP1;P1;durP2;ratioP2;P2;SDS_P1;SDS_P2;PMS_P1;PMS_P2;Temp;Humidity;BMP_temperature;BMP_pressure;BME280_temperature;BME280_humidity;BME280_pressure;Samples;Min_cycle;Max_cycle;Signal;HPM_P1;HPM_P2
2021/09/18 00:01:01;;;;;;;10.93;9.77;;;16.10;99.90;;;;;;5031943;28;20229;-64
2021/09/18 00:03:29;;;;;;;11.93;10.60;;;16.10;99.90;;;;;;5041056;28;20219;-64
2021/09/18 00:05:55;;;;;;;11.57;10.27;;;16.20;99.90;;;;;;5031933;28;20210;-65
2021/09/18 00:08:22;;;;;;;12.30;10.37;;;16.10;99.90;;;;;;5031709;28;20226;-65
2021/09/18 00:10:49;;;;;;;12.97;10.20;;;16.20;99.90;;;;;;5026901;28;20222;-65
2021/09/18 00:13:16;;;;;;;10.97;9.87;;;16.10;99.90;;;;;;5039450;28;20253;-64
2021/09/18 00:15:44;;;;;;;10.57;9.47;;;16.20;99.90;;;;;;5041407;28;20210;-65
2021/09/18 00:18:11;;;;;;;9.97;8.63;;;16.20;99.90;;;;;;5033311;28;20202;-64
2021/09/18 00:20:38;;;;;;;10.20;9.10;;;16.10;99.90;;;;;;5032037;28;20213;-64
2021/09/18 00:23:05;;;;;;;13.57;9.90;;;16.10;99.90;;;;;;5033055;28;20217;-65
2021/09/18 00:25:32;;;;;;;11.03;9.67;;;16.10;99.90;;;;;;5031513;28;20211;-65
2021/09/18 00:27:58;;;;;;;12.67;10.20;;;16.10;99.90;;;;;;5031766;28;20237;-64
2021/09/18 00:30:25;;;;;;;11.20;10.00;;;16.10;99.90;;;;;;5031504;28;20234;-64
2021/09/18 00:32:53;;;;;;;12.70;10.03;;;16.10;99.90;;;;;;5032110;28;20659;-65
2021/09/18 00:35:20;;;;;;;11.57;10.23;;;16.00;99.90;;;;;;5033019;28;20214;-64
2021/09/18 00:37:47;;;;;;;11.90;10.53;;;16.10;99.90;;;;;;5031345;28;20227;-64
2021/09/18 00:40:14;;;;;;;11.73;10.30;;;16.00;99.90;;;;;;5031772;28;20230;-65
2021/09/18 00:42:41;;;;;;;11.13;9.93;;;16.00;99.90;;;;;;5043577;28;20205;-65
2021/09/18 00:45:09;;;;;;;11.33;10.17;;;16.00;99.90;;;;;;5036465;28;20581;-64
2021/09/18 00:47:36;;;;;;;12.20;9.80;;;15.90;99.90;;;;;;5030769;28;20664;-66
2021/09/18 00:50:06;;;;;;;11.97;10.33;;;15.90;99.90;;;;;;5031240;28;20214;-64
2021/09/18 00:52:32;;;;;;;11.23;10.03;;;15.90;99.90;;;;;;5032331;28;20217;-64
2021/09/18 00:54:59;;;;;;;11.20;10.10;;;15.90;99.90;;;;;;5040317;28;20651;-65
2021/09/18 00:57:26;;;;;;;11.47;10.30;;;15.90;99.90;;;;;;5031231;28;20229;-65
2021/09/18 00:59:53;;;;;;;12.50;10.07;;;15.90;99.90;;;;;;5031522;28;20210;-64
2021/09/18 01:02:20;;;;;;;10.60;9.50;;;15.90;99.90;;;;;;5031152;28;20651;-66
2021/09/18 01:04:47;;;;;;;11.30;10.10;;;16.00;99.90;;;;;;5042463;28;20655;-64
2021/09/18 01:07:15;;;;;;;13.40;9.77;;;16.00;99.90;;;;;;5035282;28;20207;-65
2021/09/18 01:09:42;;;;;;;11.90;10.70;;;16.00;99.90;;;;;;5017807;28;20230;-64
2021/09/18 01:12:09;;;;;;;11.00;9.90;;;16.00;99.90;;;;;;5032071;28;20213;-64
2021/09/18 01:14:36;;;;;;;9.80;8.80;;;16.00;99.90;;;;;;5045389;28;20249;-65
2021/09/18 01:17:03;;;;;;;10.67;9.57;;;16.10;99.90;;;;;;5041703;28;20209;-65
2021/09/18 01:19:30;;;;;;;10.60;9.50;;;16.10;99.90;;;;;;5046560;28;20199;-64
2021/09/18 01:21:59;;;;;;;11.27;10.17;;;16.10;99.90;;;;;;5031333;28;20215;-64
2021/09/18 01:24:27;;;;;;;11.00;9.00;;;16.10;99.90;;;;;;5030794;28;20222;-64
2021/09/18 01:26:53;;;;;;;10.30;9.20;;;16.10;99.90;;;;;;5032699;28;20206;-64
2021/09/18 01:29:20;;;;;;;10.30;9.30;;;16.10;99.90;;;;;;5033788;28;20231;-64
2021/09/18 01:31:48;;;;;;;12.90;9.17;;;16.10;99.90;;;;;;5035524;28;20206;-65
2021/09/18 01:34:17;;;;;;;10.33;8.77;;;16.10;99.90;;;;;;5034442;28;20215;-64
2021/09/18 01:36:44;;;;;;;11.87;9.27;;;16.10;99.90;;;;;;5038237;28;20250;-64
2021/09/18 01:39:12;;;;;;;10.70;9.63;;;16.10;99.90;;;;;;5035321;28;20225;-64
2021/09/18 01:41:41;;;;;;;10.90;9.80;;;16.10;99.90;;;;;;5033398;28;20215;-64
2021/09/18 01:44:09;;;;;;;11.37;10.17;;;16.10;99.90;;;;;;5034738;28;20595;-64
2021/09/18 01:46:35;;;;;;;10.27;9.20;;;16.10;99.90;;;;;;5039622;28;20213;-65
2021/09/18 01:49:02;;;;;;;13.10;9.50;;;16.10;99.90;;;;;;5042771;28;20572;-64
2021/09/18 01:51:31;;;;;;;12.73;9.80;;;16.10;99.90;;;;;;5034728;28;20210;-64
2021/09/18 01:53:58;;;;;;;12.03;10.13;;;16.10;99.90;;;;;;5034250;28;20666;-65
2021/09/18 01:56:26;;;;;;;13.33;10.23;;;16.10;99.90;;;;;;5033859;28;20585;-64
2021/09/18 01:58:54;;;;;;;13.13;10.10;;;16.00;99.90;;;;;;5042212;28;20642;-64
2021/09/18 02:01:21;;;;;;;13.43;10.47;;;16.10;99.90;;;;;;5034230;28;20574;-65
2021/09/18 02:03:48;;;;;;;13.00;10.57;;;16.10;99.90;;;;;;5034064;28;20211;-64
2021/09/18 02:06:16;;;;;;;11.20;10.00;;;16.10;99.90;;;;;;5034351;28;20726;-65
2021/09/18 02:08:43;;;;;;;13.30;11.37;;;16.10;99.90;;;;;;5034474;28;20238;-65
2021/09/18 02:11:10;;;;;;;12.60;11.20;;;16.10;99.90;;;;;;5033899;28;20211;-64
2021/09/18 02:13:36;;;;;;;13.90;11.53;;;16.00;99.90;;;;;;5033773;28;20220;-64
2021/09/18 02:16:05;;;;;;;13.37;11.53;;;16.00;99.90;;;;;;5033715;28;20209;-64
2021/09/18 02:18:32;;;;;;;13.63;11.17;;;15.90;99.90;;;;;;5041165;28;20206;-65
2021/09/18 02:20:59;;;;;;;11.93;10.60;;;16.00;99.90;;;;;;5038152;28;20670;-63
2021/09/18 02:23:26;;;;;;;13.93;11.93;;;16.00;99.90;;;;;;5033516;28;20214;-64
2021/09/18 02:25:53;;;;;;;14.23;12.17;;;16.00;99.90;;;;;;5035655;28;20202;-64
2021/09/18 02:28:19;;;;;;;13.90;11.53;;;16.00;99.90;;;;;;5033942;28;20210;-64
2021/09/18 02:30:46;;;;;;;13.47;11.10;;;16.00;99.90;;;;;;5041631;28;20214;-64
2021/09/18 02:33:14;;;;;;;13.43;11.70;;;16.00;99.90;;;;;;5044697;28;20214;-65
2021/09/18 02:35:41;;;;;;;15.03;12.10;;;16.00;99.90;;;;;;5043136;28;20217;-64
2021/09/18 02:38:08;;;;;;;14.80;12.20;;;16.10;99.90;;;;;;5033855;28;20206;-64
2021/09/18 02:40:38;;;;;;;13.57;12.03;;;16.00;99.90;;;;;;5033708;28;20210;-65
2021/09/18 02:43:05;;;;;;;14.00;11.33;;;16.00;99.90;;;;;;5033280;28;20585;-64
2021/09/18 02:45:32;;;;;;;13.53;11.97;;;16.00;99.90;;;;;;5032495;28;20214;-64
2021/09/18 02:47:59;;;;;;;12.87;11.23;;;16.00;99.90;;;;;;5040893;28;20217;-65
2021/09/18 02:50:27;;;;;;;15.23;13.10;;;16.00;99.90;;;;;;5032695;28;20227;-64
2021/09/18 02:52:54;;;;;;;16.63;13.13;;;16.10;99.90;;;;;;5032528;28;20217;-66
2021/09/18 02:55:21;;;;;;;16.33;13.37;;;16.10;99.90;;;;;;5033189;28;20206;-64
2021/09/18 02:57:48;;;;;;;17.20;13.57;;;16.10;99.90;;;;;;5033545;28;20210;-65
2021/09/18 03:00:15;;;;;;;16.33;13.67;;;16.00;99.90;;;;;;5030649;28;20214;-64
2021/09/18 03:02:42;;;;;;;18.27;13.00;;;16.10;99.90;;;;;;5033357;28;20203;-64
2021/09/18 03:05:10;;;;;;;16.33;13.07;;;16.10;99.90;;;;;;5028438;28;20438;-65
2021/09/18 03:07:38;;;;;;;19.00;13.33;;;16.10;99.90;;;;;;5030429;28;20218;-65
2021/09/18 03:10:07;;;;;;;15.37;13.37;;;16.10;99.90;;;;;;5033551;28;20226;-64
2021/09/18 03:12:35;;;;;;;15.47;13.10;;;16.10;99.90;;;;;;5033675;28;20559;-65
2021/09/18 03:15:01;;;;;;;15.60;12.77;;;16.10;99.90;;;;;;5037854;28;20586;-64
2021/09/18 03:17:28;;;;;;;16.07;13.40;;;16.10;99.90;;;;;;5037797;28;20210;-64
2021/09/18 03:19:56;;;;;;;16.23;13.73;;;16.10;99.90;;;;;;5033202;28;20210;-65
2021/09/18 03:22:23;;;;;;;15.83;12.30;;;16.10;99.90;;;;;;5032870;28;20210;-63
2021/09/18 03:24:51;;;;;;;18.87;12.93;;;16.10;99.90;;;;;;5032808;28;20198;-64
2021/09/18 03:27:17;;;;;;;15.43;13.73;;;16.10;99.90;;;;;;5033246;28;20210;-64
2021/09/18 03:29:45;;;;;;;16.97;13.57;;;16.10;99.90;;;;;;5039997;28;20242;-65
2021/09/18 03:32:12;;;;;;;17.17;14.13;;;16.20;99.90;;;;;;5039502;28;20442;-65
2021/09/18 03:34:39;;;;;;;18.63;13.53;;;16.20;99.90;;;;;;5032756;28;20202;-64
2021/09/18 03:37:06;;;;;;;15.97;13.73;;;16.10;99.90;;;;;;5035968;28;20230;-65
2021/09/18 03:39:33;;;;;;;17.73;14.03;;;16.10;99.90;;;;;;5032562;28;20214;-65
2021/09/18 03:42:01;;;;;;;16.63;13.40;;;16.10;99.90;;;;;;5032445;28;20206;-65
2021/09/18 03:44:28;;;;;;;14.47;11.73;;;16.10;99.90;;;;;;5032786;28;20562;-64
2021/09/18 03:46:55;;;;;;;12.20;9.40;;;16.10;99.90;;;;;;5032884;28;20555;-64
2021/09/18 03:49:22;;;;;;;7.70;6.70;;;16.00;99.90;;;;;;5031608;28;20225;-64
2021/09/18 03:51:48;;;;;;;7.40;6.27;;;15.90;99.90;;;;;;5033143;28;20551;-64
2021/09/18 03:54:15;;;;;;;7.13;6.43;;;15.90;99.90;;;;;;5032716;28;20595;-65
2021/09/18 03:56:42;;;;;;;7.13;6.20;;;15.80;99.90;;;;;;5031530;28;20666;-65
2021/09/18 03:59:10;;;;;;;8.33;5.63;;;15.80;99.90;;;;;;5031567;28;20207;-64
2021/09/18 04:01:37;;;;;;;6.60;5.90;;;15.80;99.90;;;;;;5032739;28;20209;-64
2021/09/18 04:04:04;;;;;;;6.93;6.07;;;15.70;99.90;;;;;;5032290;28;20217;-64
2021/09/18 04:06:31;;;;;;;7.03;6.10;;;15.60;99.90;;;;;;5033003;28;20210;-65
2021/09/18 04:08:57;;;;;;;6.77;5.47;;;15.60;99.90;;;;;;5032561;28;20777;-65
2021/09/18 04:11:24;;;;;;;6.87;6.17;;;15.50;99.90;;;;;;5034589;28;20206;-65
2021/09/18 04:13:52;;;;;;;6.43;5.43;;;15.50;99.90;;;;;;5039127;28;20221;-64
2021/09/18 04:16:21;;;;;;;6.40;5.70;;;15.40;99.90;;;;;;5031826;28;20210;-64
2021/09/18 04:18:48;;;;;;;8.07;6.07;;;15.30;99.90;;;;;;5031405;28;20214;-64
2021/09/18 04:21:15;;;;;;;7.07;6.33;;;15.20;99.90;;;;;;5032021;28;20210;-64
2021/09/18 04:23:43;;;;;;;6.87;5.87;;;15.20;99.90;;;;;;5031264;28;20297;-64
2021/09/18 04:26:09;;;;;;;7.17;6.20;;;15.10;99.90;;;;;;5031702;28;20254;-65
2021/09/18 04:28:36;;;;;;;7.40;6.47;;;15.00;99.90;;;;;;5031642;28;20244;-64
2021/09/18 04:31:03;;;;;;;8.57;6.50;;;15.00;99.90;;;;;;5039135;28;20246;-65
2021/09/18 04:33:31;;;;;;;7.97;6.50;;;15.00;99.90;;;;;;5041727;28;20206;-65
2021/09/18 04:35:58;;;;;;;9.77;6.63;;;14.90;99.90;;;;;;5038621;28;20226;-64
2021/09/18 04:38:25;;;;;;;7.83;6.60;;;14.90;99.90;;;;;;5034481;28;20225;-64
2021/09/18 04:40:52;;;;;;;11.90;7.37;;;14.90;99.90;;;;;;5032720;28;20221;-65
2021/09/18 04:43:18;;;;;;;8.17;6.67;;;14.90;99.90;;;;;;5032103;28;20647;-65
2021/09/18 04:45:45;;;;;;;10.27;7.33;;;14.80;99.90;;;;;;5034529;28;20210;-64
2021/09/18 04:48:12;;;;;;;10.53;6.67;;;14.80;99.90;;;;;;5036578;28;20203;-64
2021/09/18 04:50:41;;;;;;;9.07;7.43;;;14.80;99.90;;;;;;5031532;28;20626;-64
2021/09/18 04:53:07;;;;;;;9.47;7.73;;;14.80;99.90;;;;;;5031922;28;20285;-65
2021/09/18 04:55:34;;;;;;;10.83;8.10;;;14.80;99.90;;;;;;5030933;28;20221;-65
2021/09/18 04:58:01;;;;;;;10.13;7.70;;;14.70;99.90;;;;;;5031476;28;20541;-65
2021/09/18 05:00:28;;;;;;;12.03;8.73;;;14.70;99.90;;;;;;5032198;28;20239;-65
2021/09/18 05:02:55;;;;;;;14.70;8.80;;;14.60;99.90;;;;;;5038144;28;20209;-65
2021/09/18 05:05:21;;;;;;;12.90;7.50;;;14.60;99.90;;;;;;5044571;28;20598;-64
2021/09/18 05:07:50;;;;;;;12.27;8.40;;;14.50;99.90;;;;;;5035373;28;20230;-64
2021/09/18 05:10:16;;;;;;;11.10;7.97;;;14.50;99.90;;;;;;5034787;28;20805;-65
2021/09/18 05:12:43;;;;;;;8.97;7.43;;;14.50;99.90;;;;;;5034479;28;20655;-65
2021/09/18 05:15:10;;;;;;;10.60;8.57;;;14.50;99.90;;;;;;5034691;28;20654;-64
2021/09/18 05:17:38;;;;;;;12.03;8.40;;;14.50;99.90;;;;;;5036423;28;20225;-63
2021/09/18 05:20:06;;;;;;;10.60;7.77;;;14.60;99.90;;;;;;5036043;28;20628;-64
2021/09/18 05:22:33;;;;;;;8.63;7.73;;;14.60;99.90;;;;;;5035452;28;20214;-64
2021/09/18 05:25:01;;;;;;;8.90;7.20;;;14.70;99.90;;;;;;5034968;28;20207;-64
2021/09/18 05:27:27;;;;;;;8.33;6.80;;;14.80;99.90;;;;;;5038599;28;20218;-63
2021/09/18 05:29:54;;;;;;;10.20;7.17;;;14.80;99.90;;;;;;5042024;28;20234;-63
2021/09/18 05:32:21;;;;;;;7.07;6.03;;;14.90;99.90;;;;;;5039554;28;20223;-64
2021/09/18 05:34:48;;;;;;;7.43;5.33;;;14.90;99.90;;;;;;5032674;28;20202;-64
2021/09/18 05:37:14;;;;;;;8.67;5.60;;;14.90;99.90;;;;;;5034615;28;20705;-64
2021/09/18 05:39:41;;;;;;;6.73;5.73;;;14.90;99.90;;;;;;5035249;28;20209;-64
2021/09/18 05:42:09;;;;;;;7.77;5.53;;;14.90;99.90;;;;;;5036034;28;20229;-64
2021/09/18 05:44:36;;;;;;;8.27;5.80;;;14.90;99.90;;;;;;5038277;28;20214;-63
2021/09/18 05:47:03;;;;;;;9.63;5.87;;;14.90;99.90;;;;;;5034205;28;20212;-63
2021/09/18 05:49:30;;;;;;;7.67;6.30;;;14.90;99.90;;;;;;5038216;28;20230;-64
2021/09/18 05:51:57;;;;;;;10.57;6.70;;;14.80;99.90;;;;;;5036903;28;20651;-63
2021/09/18 05:54:24;;;;;;;8.83;5.90;;;14.80;99.90;;;;;;5045239;28;20203;-64
2021/09/18 05:56:51;;;;;;;8.20;6.70;;;14.80;99.90;;;;;;5034170;28;20211;-65
2021/09/18 05:59:19;;;;;;;9.20;7.40;;;14.80;99.90;;;;;;5034625;28;20203;-64
2021/09/18 06:01:46;;;;;;;9.60;6.50;;;14.80;99.90;;;;;;5038518;28;20199;-64
2021/09/18 06:04:13;;;;;;;10.33;6.47;;;14.70;99.90;;;;;;5034169;28;20225;-64
2021/09/18 06:06:39;;;;;;;6.37;5.53;;;14.70;99.90;;;;;;5036649;28;20674;-65
2021/09/18 06:09:06;;;;;;;8.20;6.10;;;14.70;99.90;;;;;;5034922;28;20211;-65
2021/09/18 06:11:33;;;;;;;8.47;5.67;;;14.70;99.90;;;;;;5031278;28;20218;-64
2021/09/18 06:14:00;;;;;;;7.97;6.07;;;14.60;99.90;;;;;;5026636;28;20214;-65
2021/09/18 06:16:28;;;;;;;6.37;5.70;;;14.80;99.90;;;;;;5032466;28;20210;-64
2021/09/18 06:18:55;;;;;;;8.23;5.73;;;14.80;99.90;;;;;;5025975;28;20561;-65
2021/09/18 06:21:22;;;;;;;7.27;5.50;;;14.70;99.90;;;;;;5034717;28;20206;-64
2021/09/18 06:23:49;;;;;;;5.60;5.00;;;14.60;99.90;;;;;;5034454;28;20225;-64
2021/09/18 06:26:16;;;;;;;7.03;5.13;;;14.60;99.90;;;;;;5034082;28;20325;-64
2021/09/18 06:28:43;;;;;;;7.90;5.23;;;14.70;99.90;;;;;;5034067;28;20245;-66
2021/09/18 06:31:10;;;;;;;5.50;5.00;;;14.50;99.90;;;;;;5035061;28;20232;-64
2021/09/18 06:33:38;;;;;;;5.93;4.63;;;14.50;99.90;;;;;;5041224;28;20219;-66
2021/09/18 06:36:06;;;;;;;6.33;4.70;;;14.40;99.90;;;;;;5034519;28;20226;-64
2021/09/18 06:38:32;;;;;;;7.63;4.67;;;14.30;99.90;;;;;;5047196;28;20211;-63
2021/09/18 06:41:00;;;;;;;4.60;4.17;;;14.20;99.90;;;;;;5034722;28;20195;-63
2021/09/18 06:43:28;;;;;;;4.60;4.10;;;14.10;99.90;;;;;;5033718;28;20206;-64
2021/09/18 06:45:56;;;;;;;4.63;4.13;;;14.00;99.90;;;;;;5043206;28;20206;-64
2021/09/18 06:48:22;;;;;;;5.20;4.53;;;14.00;99.90;;;;;;5041541;28;20218;-65
2021/09/18 06:50:51;;;;;;;3.73;3.43;;;14.00;99.90;;;;;;5034090;28;20222;-64
2021/09/18 06:53:18;;;;;;;4.40;4.00;;;14.00;99.90;;;;;;5033784;28;20214;-65
2021/09/18 06:55:45;;;;;;;5.73;4.83;;;13.90;99.90;;;;;;5033446;28;20258;-64
2021/09/18 06:58:11;;;;;;;5.30;4.80;;;13.90;99.90;;;;;;5034551;28;20209;-65
2021/09/18 07:00:38;;;;;;;4.77;4.27;;;13.90;99.90;;;;;;5033611;28;20213;-64
2021/09/18 07:03:05;;;;;;;4.97;4.37;;;13.80;99.90;;;;;;5028467;28;20210;-65
2021/09/18 07:05:32;;;;;;;5.40;4.50;;;13.80;99.90;;;;;;5030762;28;20328;-65
2021/09/18 07:08:00;;;;;;;5.10;4.60;;;13.80;99.90;;;;;;5035999;28;20555;-65
2021/09/18 07:10:27;;;;;;;7.03;5.20;;;13.70;99.90;;;;;;5044850;28;20697;-65
2021/09/18 07:12:54;;;;;;;6.13;4.97;;;13.70;99.90;;;;;;5034858;28;20670;-63
2021/09/18 07:15:21;;;;;;;5.50;4.77;;;13.60;99.90;;;;;;5043419;28;20663;-64
2021/09/18 07:17:48;;;;;;;6.20;4.93;;;13.60;99.90;;;;;;5038313;28;20200;-65
2021/09/18 07:20:16;;;;;;;6.73;5.43;;;13.60;99.90;;;;;;5034541;28;20214;-64
2021/09/18 07:22:42;;;;;;;7.77;6.03;;;13.60;99.90;;;;;;5033039;28;20229;-65
2021/09/18 07:25:12;;;;;;;7.77;5.27;;;13.50;99.90;;;;;;5026545;28;20575;-64
2021/09/18 07:27:39;;;;;;;6.87;5.07;;;13.50;99.90;;;;;;5033355;28;20625;-64
2021/09/18 07:30:08;;;;;;;6.60;5.20;;;13.50;99.90;;;;;;5037087;28;20788;-64
2021/09/18 07:32:34;;;;;;;5.10;4.60;;;13.60;99.90;;;;;;5028508;28;20214;-65
2021/09/18 07:35:05;;;;;;;5.87;4.50;;;13.60;99.90;;;;;;5028870;28;20210;-65
2021/09/18 07:37:33;;;;;;;6.70;4.23;;;13.60;99.90;;;;;;5033744;28;20230;-64
2021/09/18 07:40:00;;;;;;;4.20;3.80;;;13.60;99.90;;;;;;5043491;28;20210;-63
2021/09/18 07:42:28;;;;;;;3.80;3.17;;;13.60;99.90;;;;;;5038127;28;20211;-65
2021/09/18 07:44:55;;;;;;;5.03;4.00;;;13.70;99.90;;;;;;5040927;28;20602;-63
2021/09/18 07:47:22;;;;;;;4.30;3.53;;;13.80;99.90;;;;;;5032625;28;20211;-64
2021/09/18 07:49:48;;;;;;;3.47;3.17;;;13.90;99.90;;;;;;5031091;28;20206;-64
2021/09/18 07:52:16;;;;;;;4.50;2.87;;;14.00;99.90;;;;;;5032134;28;20210;-64
2021/09/18 07:54:43;;;;;;;5.00;3.03;;;14.10;99.90;;;;;;5032359;28;20596;-65
2021/09/18 07:57:10;;;;;;;3.73;2.87;;;14.20;99.90;;;;;;5022675;28;20618;-64
2021/09/18 07:59:38;;;;;;;4.00;2.67;;;14.30;99.90;;;;;;5035016;28;20670;-64
2021/09/18 08:02:05;;;;;;;5.33;2.87;;;14.50;99.90;;;;;;5036815;28;20220;-64
2021/09/18 08:04:33;;;;;;;3.57;2.93;;;14.60;99.90;;;;;;5039185;28;20618;-65
2021/09/18 08:07:00;;;;;;;3.63;3.03;;;14.60;99.90;;;;;;5040214;28;20244;-65
2021/09/18 08:09:26;;;;;;;6.70;2.90;;;14.60;99.90;;;;;;5032632;28;20214;-65
2021/09/18 08:11:54;;;;;;;3.97;3.07;;;14.60;99.90;;;;;;5031942;28;20241;-64
2021/09/18 08:14:21;;;;;;;3.27;2.97;;;14.60;99.90;;;;;;5031457;28;20214;-63
2021/09/18 08:16:50;;;;;;;3.27;2.87;;;14.50;99.90;;;;;;5038094;28;20209;-65
2021/09/18 08:19:17;;;;;;;5.57;3.10;;;14.40;99.90;;;;;;5031669;28;20264;-64
2021/09/18 08:21:44;;;;;;;3.17;2.57;;;14.40;99.90;;;;;;5031859;28;20198;-64
2021/09/18 08:24:11;;;;;;;2.80;2.60;;;14.40;99.90;;;;;;5038427;28;20198;-62
2021/09/18 08:26:38;;;;;;;3.37;2.60;;;14.50;99.90;;;;;;5032547;28;20206;-63
2021/09/18 08:29:05;;;;;;;5.90;2.30;;;14.50;99.90;;;;;;5037858;28;20248;-65
2021/09/18 08:31:33;;;;;;;2.13;1.90;;;14.40;99.90;;;;;;5031384;28;20226;-64
2021/09/18 08:34:01;;;;;;;2.77;1.90;;;14.40;99.90;;;;;;5030371;28;20237;-63
2021/09/18 08:36:28;;;;;;;4.60;2.07;;;14.30;99.90;;;;;;5035821;28;20231;-63
2021/09/18 08:38:55;;;;;;;4.03;1.50;;;14.30;99.90;;;;;;5034627;28;20317;-64
2021/09/18 08:41:21;;;;;;;3.30;2.03;;;14.30;99.90;;;;;;5036954;28;20215;-66
2021/09/18 08:43:48;;;;;;;2.07;1.90;;;14.20;99.90;;;;;;5034207;28;20214;-64
2021/09/18 08:46:17;;;;;;;2.27;1.80;;;14.20;99.90;;;;;;5027416;28;20229;-65
2021/09/18 08:48:46;;;;;;;2.93;1.90;;;14.20;99.90;;;;;;5036862;28;20234;-63
2021/09/18 08:51:15;;;;;;;2.30;2.10;;;14.30;99.90;;;;;;5031475;28;20592;-64
2021/09/18 08:53:42;;;;;;;3.67;2.20;;;14.30;99.90;;;;;;5033581;28;20237;-64
2021/09/18 08:56:09;;;;;;;3.23;2.13;;;14.40;99.90;;;;;;5030537;28;20211;-63
2021/09/18 08:58:36;;;;;;;2.90;2.00;;;14.40;99.90;;;;;;5029976;28;20210;-63
2021/09/18 09:01:04;;;;;;;2.20;2.00;;;14.30;99.90;;;;;;5030363;28;20222;-64
2021/09/18 09:03:34;;;;;;;2.33;1.90;;;14.30;99.90;;;;;;5028653;28;20203;-64
2021/09/18 09:06:05;;;;;;;2.77;2.17;;;14.30;99.90;;;;;;5030200;28;20214;-63
2021/09/18 09:08:34;;;;;;;4.00;2.83;;;14.20;99.90;;;;;;5030541;28;20195;-65
2021/09/18 09:11:15;;;;;;;6.87;2.60;;;14.20;99.90;;;;;;5030239;28;20262;-64
2021/09/18 09:13:58;;;;;;;5.40;2.80;;;14.20;99.90;;;;;;5028229;28;20203;-63
2021/09/18 09:16:26;;;;;;;3.00;2.33;;;14.20;99.90;;;;;;5030217;28;20198;-66
2021/09/18 09:18:53;;;;;;;3.23;2.40;;;14.20;99.90;;;;;;5030858;28;20571;-64
2021/09/18 09:21:22;;;;;;;3.30;2.47;;;14.10;99.90;;;;;;5030342;28;20199;-64
2021/09/18 09:26:43;;;;;;;5.10;4.63;;;14.10;99.90;;;;;;5082560;27;20972;-63
2021/09/18 09:29:10;;;;;;;6.30;4.80;;;14.20;99.90;;;;;;5085309;28;20228;-64
2021/09/18 09:31:39;;;;;;;6.57;5.57;;;14.10;99.90;;;;;;5085560;28;20216;-64
2021/09/18 09:34:11;;;;;;;6.07;5.57;;;14.00;99.90;;;;;;5086710;28;20657;-64
2021/09/18 09:36:42;;;;;;;5.50;4.87;;;14.00;99.90;;;;;;5079812;28;20229;-64
2021/09/18 09:39:11;;;;;;;4.47;3.90;;;14.00;99.90;;;;;;5077225;28;20204;-64
2021/09/18 09:41:41;;;;;;;5.93;3.47;;;14.00;99.90;;;;;;5071556;28;20209;-64
2021/09/18 09:44:13;;;;;;;4.07;3.50;;;14.00;99.90;;;;;;5072782;28;20251;-63
2021/09/18 09:46:40;;;;;;;4.30;3.90;;;13.90;99.90;;;;;;5072382;28;20223;-63
2021/09/18 09:49:11;;;;;;;4.70;4.03;;;13.80;99.90;;;;;;5072470;28;20448;-64
2021/09/18 09:51:38;;;;;;;4.50;4.10;;;13.80;99.90;;;;;;5072385;28;20209;-64
2021/09/18 09:54:23;;;;;;;6.37;4.63;;;13.70;99.90;;;;;;5067424;28;20410;-66
2021/09/18 09:57:10;;;;;;;6.27;4.47;;;13.70;99.90;;;;;;5070162;28;20209;-64
2021/09/18 09:59:39;;;;;;;5.20;4.73;;;13.70;99.90;;;;;;5082480;28;20578;-65
2021/09/18 10:02:08;;;;;;;6.60;4.57;;;13.70;99.90;;;;;;5087361;28;20219;-64
2021/09/18 10:04:35;;;;;;;6.07;5.47;;;13.70;99.90;;;;;;5072950;28;20217;-64
2021/09/18 10:07:03;;;;;;;4.90;4.40;;;13.70;99.90;;;;;;5086983;28;20205;-64
2021/09/18 10:09:30;;;;;;;4.93;4.07;;;13.70;99.90;;;;;;5073393;28;20209;-64
2021/09/18 10:11:58;;;;;;;4.83;4.43;;;13.70;99.90;;;;;;5083901;28;20212;-64
2021/09/18 10:14:31;;;;;;;4.00;3.50;;;13.70;99.90;;;;;;5073617;28;20205;-65
2021/09/18 10:17:01;;;;;;;4.20;3.80;;;13.70;99.90;;;;;;5086795;28;20212;-64
2021/09/18 10:25:15;;;;;;;4.43;3.47;;;13.60;99.90;;;;;;5063420;28;20543;-65
2021/09/18 10:27:58;;;;;;;5.37;4.17;;;13.60;99.90;;;;;;5087829;28;20308;-64
2021/09/18 10:30:29;;;;;;;4.13;3.43;;;13.60;99.90;;;;;;5087913;28;20197;-65
2021/09/18 10:32:57;;;;;;;8.03;4.60;;;13.50;99.90;;;;;;5073201;28;20259;-65
2021/09/18 10:35:24;;;;;;;4.27;2.70;;;13.50;99.90;;;;;;5087695;28;20572;-65
2021/09/18 10:37:51;;;;;;;3.27;2.97;;;13.50;99.90;;;;;;5067032;28;20214;-64
2021/09/18 10:40:18;;;;;;;3.80;3.17;;;13.50;99.90;;;;;;5069262;28;20206;-65
2021/09/18 10:42:46;;;;;;;3.33;3.03;;;13.50;99.90;;;;;;5066408;28;20520;-64
2021/09/18 10:45:16;;;;;;;4.63;2.90;;;13.60;99.90;;;;;;5060530;28;20320;-65
2021/09/18 10:47:47;;;;;;;4.57;2.73;;;13.70;99.90;;;;;;5074587;28;20209;-66
2021/09/18 10:50:40;;;;;;;2.93;2.73;;;13.80;99.90;;;;;;5073761;28;20788;-65
2021/09/18 10:53:11;;;;;;;3.07;2.70;;;14.00;99.90;;;;;;5054564;28;20202;-65
2021/09/18 10:55:55;;;;;;;2.77;2.40;;;14.10;99.90;;;;;;5054097;28;20247;-64
2021/09/18 10:58:22;;;;;;;4.10;2.77;;;14.20;99.90;;;;;;5054304;28;20205;-64
2021/09/18 11:00:52;;;;;;;2.53;2.37;;;14.30;99.90;;;;;;5054126;28;20202;-63
2021/09/18 11:03:39;;;;;;;3.63;3.33;;;14.30;99.90;;;;;;5054529;28;20614;-64
2021/09/18 11:06:08;;;;;;;3.00;2.50;;;14.30;99.90;;;;;;5053758;28;20218;-64
2021/09/18 11:08:37;;;;;;;3.03;2.73;;;14.40;99.90;;;;;;5053759;28;20202;-66
2021/09/18 11:11:13;;;;;;;3.20;2.90;;;14.40;99.90;;;;;;5054228;28;20216;-65
2021/09/18 11:13:43;;;;;;;3.60;3.30;;;14.40;99.90;;;;;;5060270;28;20212;-65
2021/09/18 11:16:22;;;;;;;3.77;3.33;;;15.50;99.90;;;;;;5055529;28;20202;-63
2021/09/18 11:18:52;;;;;;;4.20;3.73;;;14.30;99.90;;;;;;5055302;28;20209;-64
2021/09/18 11:21:24;;;;;;;3.97;3.57;;;14.30;99.90;;;;;;5054085;28;20204;-65
2021/09/18 11:23:53;;;;;;;5.90;4.43;;;14.20;99.90;;;;;;5055343;28;20297;-66
2021/09/18 11:26:42;;;;;;;4.90;4.50;;;14.20;99.90;;;;;;5053668;28;20237;-65
2021/09/18 11:29:17;;;;;;;5.23;3.90;;;14.20;99.90;;;;;;5055008;28;20251;-65
2021/09/18 11:32:02;;;;;;;3.77;3.57;;;14.20;99.90;;;;;;5054177;28;20202;-63
2021/09/18 11:34:31;;;;;;;3.33;3.03;;;14.10;99.90;;;;;;5061177;28;20742;-64
2021/09/18 11:37:00;;;;;;;5.07;3.07;;;14.10;99.90;;;;;;5054773;28;20224;-64
2021/09/18 11:39:53;;;;;;;2.67;2.47;;;14.10;99.90;;;;;;5062856;28;20216;-64
2021/09/18 11:42:25;;;;;;;2.20;2.10;;;14.10;99.90;;;;;;5047873;28;20206;-64
2021/09/18 11:44:57;;;;;;;2.30;2.20;;;14.20;99.90;;;;;;5057008;28;20205;-63
2021/09/18 11:47:26;;;;;;;2.10;2.00;;;14.20;99.90;;;;;;5069227;28;20193;-64
2021/09/18 11:49:53;;;;;;;1.70;1.60;;;14.20;99.90;;;;;;5066629;28;20521;-65
2021/09/18 11:52:32;;;;;;;2.07;1.83;;;14.10;99.90;;;;;;5053121;28;20213;-64
2021/09/18 11:54:59;;;;;;;1.20;1.10;;;14.00;99.90;;;;;;5052769;28;20206;-65
2021/09/18 11:57:26;;;;;;;0.70;0.70;;;14.00;99.90;;;;;;5052423;28;20217;-64
2021/09/18 11:59:53;;;;;;;0.90;0.90;;;14.00;99.90;;;;;;5052346;28;20217;-64
2021/09/18 12:02:30;;;;;;;1.80;1.23;;;14.00;99.90;;;;;;5052762;28;20206;-64
2021/09/18 12:04:57;;;;;;;0.77;0.73;;;14.00;99.90;;;;;;5052171;28;20307;-64
2021/09/18 12:07:25;;;;;;;0.70;0.70;;;14.00;99.90;;;;;;5052771;28;20218;-64
2021/09/18 12:09:53;;;;;;;1.10;0.90;;;14.00;99.90;;;;;;5053207;28;20569;-64
2021/09/18 12:12:27;;;;;;;0.50;0.50;;;13.90;99.90;;;;;;5052631;28;20193;-64
2021/09/18 12:14:55;;;;;;;1.40;0.80;;;13.90;99.90;;;;;;5046682;28;20201;-64
2021/09/18 12:17:22;;;;;;;1.33;0.80;;;13.90;99.90;;;;;;5052876;28;20637;-62
2021/09/18 12:19:50;;;;;;;3.33;1.00;;;13.90;99.90;;;;;;5058889;28;20202;-64
2021/09/18 12:22:17;;;;;;;1.30;0.83;;;13.90;99.90;;;;;;5056332;28;20326;-65
2021/09/18 12:24:50;;;;;;;1.17;0.80;;;13.90;99.90;;;;;;5059911;28;20610;-64
2021/09/18 12:27:28;;;;;;;0.90;0.90;;;13.90;99.90;;;;;;5058521;28;20205;-64
2021/09/18 12:30:01;;;;;;;1.10;1.00;;;13.90;99.90;;;;;;5061649;28;20228;-63
2021/09/18 12:32:28;;;;;;;0.87;0.87;;;13.90;99.90;;;;;;5059788;28;20240;-65
2021/09/18 12:35:03;;;;;;;0.87;0.87;;;13.90;99.90;;;;;;5060384;28;20206;-64
2021/09/18 12:37:32;;;;;;;1.00;0.90;;;13.80;99.90;;;;;;5052409;28;20244;-64
2021/09/18 12:40:19;;;;;;;0.87;0.87;;;13.70;99.90;;;;;;5059895;28;20202;-64
2021/09/18 12:42:46;;;;;;;0.90;0.90;;;13.60;99.90;;;;;;5045885;28;20582;-66
2021/09/18 12:45:26;;;;;;;0.90;0.80;;;13.60;99.90;;;;;;5051493;28;20564;-63
2021/09/18 12:48:15;;;;;;;0.60;0.60;;;13.50;99.90;;;;;;5050738;28;20312;-63
2021/09/18 12:50:58;;;;;;;0.63;0.63;;;13.40;99.90;;;;;;5055929;28;20206;-66
2021/09/18 12:53:26;;;;;;;0.60;0.60;;;13.30;99.90;;;;;;5052017;28;20208;-64
2021/09/18 12:56:17;;;;;;;0.77;0.60;;;13.20;99.90;;;;;;5051293;28;20202;-63